sensor_id;sensor_type;location;lat;lon;timestamp;temperature;humidity
64062;DHT22;50308;47.438;-1.528;2023-12-28T00:00:55;13.70;99.60
64062;DHT22;50308;47.438;-1.528;2023-12-28T00:03:21;13.70;99.40
64062;DHT22;50308;47.438;-1.528;2023-12-28T00:05:47;13.70;99.40
64062;DHT22;50308;47.438;-1.528;2023-12-28T00:08:13;13.70;99.40
64062;DHT22;50308;47.438;-1.528;2023-12-28T00:10:38;13.70;99.40
64062;DHT22;50308;47.438;-1.528;2023-12-28T00:13:04;13.70;99.40
64062;DHT22;50308;47.438;-1.528;2023-12-28T00:15:30;13.70;99.40
64062;DHT22;50308;47.438;-1.528;2023-12-28T00:17:55;13.70;99.30
64062;DHT22;50308;47.438;-1.528;2023-12-28T00:20:21;13.70;99.30
64062;DHT22;50308;47.438;-1.528;2023-12-28T00:22:46;13.70;99.30
64062;DHT22;50308;47.438;-1.528;2023-12-28T00:25:12;13.70;99.20
64062;DHT22;50308;47.438;-1.528;2023-12-28T00:27:38;13.70;99.20
64062;DHT22;50308;47.438;-1.528;2023-12-28T00:30:05;13.70;99.20
64062;DHT22;50308;47.438;-1.528;2023-12-28T00:32:31;13.70;99.20
64062;DHT22;50308;47.438;-1.528;2023-12-28T00:34:57;13.70;99.20
64062;DHT22;50308;47.438;-1.528;2023-12-28T00:37:22;13.70;99.10
64062;DHT22;50308;47.438;-1.528;2023-12-28T00:39:48;13.70;99.10
64062;DHT22;50308;47.438;-1.528;2023-12-28T00:42:15;13.70;99.10
64062;DHT22;50308;47.438;-1.528;2023-12-28T00:44:41;13.70;99.00
64062;DHT22;50308;47.438;-1.528;2023-12-28T00:47:07;13.70;99.00
64062;DHT22;50308;47.438;-1.528;2023-12-28T00:49:32;13.70;99.00
64062;DHT22;50308;47.438;-1.528;2023-12-28T00:51:58;13.70;99.00
64062;DHT22;50308;47.438;-1.528;2023-12-28T00:54:24;13.70;99.00
64062;DHT22;50308;47.438;-1.528;2023-12-28T00:56:49;13.70;99.00
64062;DHT22;50308;47.438;-1.528;2023-12-28T00:59:15;13.70;99.00
64062;DHT22;50308;47.438;-1.528;2023-12-28T01:01:41;13.70;98.90
64062;DHT22;50308;47.438;-1.528;2023-12-28T01:04:06;13.70;98.90
64062;DHT22;50308;47.438;-1.528;2023-12-28T01:06:32;13.60;98.90
64062;DHT22;50308;47.438;-1.528;2023-12-28T01:08:57;13.60;98.90
64062;DHT22;50308;47.438;-1.528;2023-12-28T01:11:23;13.70;98.90
64062;DHT22;50308;47.438;-1.528;2023-12-28T01:13:51;13.70;98.90
64062;DHT22;50308;47.438;-1.528;2023-12-28T01:16:16;13.70;98.80
64062;DHT22;50308;47.438;-1.528;2023-12-28T01:18:42;13.70;98.80
64062;DHT22;50308;47.438;-1.528;2023-12-28T01:21:08;13.70;98.80
64062;DHT22;50308;47.438;-1.528;2023-12-28T01:23:34;13.70;98.80
64062;DHT22;50308;47.438;-1.528;2023-12-28T01:26:00;13.70;98.80
64062;DHT22;50308;47.438;-1.528;2023-12-28T01:28:26;13.70;98.70
64062;DHT22;50308;47.438;-1.528;2023-12-28T01:30:52;13.60;98.70
64062;DHT22;50308;47.438;-1.528;2023-12-28T01:33:17;13.60;98.60
64062;DHT22;50308;47.438;-1.528;2023-12-28T01:35:43;13.60;98.60
64062;DHT22;50308;47.438;-1.528;2023-12-28T01:38:09;13.60;98.60
64062;DHT22;50308;47.438;-1.528;2023-12-28T01:40:34;13.60;98.60
64062;DHT22;50308;47.438;-1.528;2023-12-28T01:43:00;13.60;98.60
64062;DHT22;50308;47.438;-1.528;2023-12-28T01:45:26;13.60;98.60
64062;DHT22;50308;47.438;-1.528;2023-12-28T01:47:53;13.60;98.60
64062;DHT22;50308;47.438;-1.528;2023-12-28T01:50:23;13.60;98.60
64062;DHT22;50308;47.438;-1.528;2023-12-28T01:52:50;13.60;98.60
64062;DHT22;50308;47.438;-1.528;2023-12-28T01:55:16;13.60;98.60
64062;DHT22;50308;47.438;-1.528;2023-12-28T01:57:42;13.60;98.50
64062;DHT22;50308;47.438;-1.528;2023-12-28T02:00:08;13.60;98.50
64062;DHT22;50308;47.438;-1.528;2023-12-28T02:02:34;13.60;98.60
64062;DHT22;50308;47.438;-1.528;2023-12-28T02:05:01;13.60;98.60
64062;DHT22;50308;47.438;-1.528;2023-12-28T02:07:27;13.60;98.50
64062;DHT22;50308;47.438;-1.528;2023-12-28T02:09:54;13.60;98.60
64062;DHT22;50308;47.438;-1.528;2023-12-28T02:12:20;13.60;98.50
64062;DHT22;50308;47.438;-1.528;2023-12-28T02:14:46;13.60;98.50
64062;DHT22;50308;47.438;-1.528;2023-12-28T02:19:55;13.60;98.50
64062;DHT22;50308;47.438;-1.528;2023-12-28T02:22:23;13.50;98.50
64062;DHT22;50308;47.438;-1.528;2023-12-28T02:25:05;13.60;98.40
64062;DHT22;50308;47.438;-1.528;2023-12-28T02:27:33;13.60;98.40
64062;DHT22;50308;47.438;-1.528;2023-12-28T02:29:59;13.60;98.40
64062;DHT22;50308;47.438;-1.528;2023-12-28T02:32:52;13.60;98.40
64062;DHT22;50308;47.438;-1.528;2023-12-28T02:35:36;13.60;98.40
64062;DHT22;50308;47.438;-1.528;2023-12-28T02:38:06;13.60;98.40
64062;DHT22;50308;47.438;-1.528;2023-12-28T02:40:36;13.60;98.40
64062;DHT22;50308;47.438;-1.528;2023-12-28T02:43:08;13.60;98.30
64062;DHT22;50308;47.438;-1.528;2023-12-28T02:45:35;13.50;98.30
64062;DHT22;50308;47.438;-1.528;2023-12-28T02:48:01;13.50;98.30
64062;DHT22;50308;47.438;-1.528;2023-12-28T02:50:27;13.50;98.30
64062;DHT22;50308;47.438;-1.528;2023-12-28T02:52:55;13.50;98.40
64062;DHT22;50308;47.438;-1.528;2023-12-28T02:55:21;13.50;98.30
64062;DHT22;50308;47.438;-1.528;2023-12-28T02:57:47;13.50;98.30
64062;DHT22;50308;47.438;-1.528;2023-12-28T03:00:12;13.50;98.40
64062;DHT22;50308;47.438;-1.528;2023-12-28T03:02:38;13.40;98.20
64062;DHT22;50308;47.438;-1.528;2023-12-28T03:05:05;13.40;98.30
64062;DHT22;50308;47.438;-1.528;2023-12-28T03:07:31;13.40;98.30
64062;DHT22;50308;47.438;-1.528;2023-12-28T03:09:57;13.40;98.40
64062;DHT22;50308;47.438;-1.528;2023-12-28T03:12:23;13.40;98.40
64062;DHT22;50308;47.438;-1.528;2023-12-28T03:14:49;13.40;98.40
64062;DHT22;50308;47.438;-1.528;2023-12-28T03:17:14;13.40;98.80
64062;DHT22;50308;47.438;-1.528;2023-12-28T03:19:40;13.50;98.40
64062;DHT22;50308;47.438;-1.528;2023-12-28T03:22:06;13.50;98.40
64062;DHT22;50308;47.438;-1.528;2023-12-28T03:24:32;13.50;98.30
64062;DHT22;50308;47.438;-1.528;2023-12-28T03:26:57;13.50;98.30
64062;DHT22;50308;47.438;-1.528;2023-12-28T03:29:23;13.50;98.30
64062;DHT22;50308;47.438;-1.528;2023-12-28T03:31:49;13.50;98.40
64062;DHT22;50308;47.438;-1.528;2023-12-28T03:34:15;13.50;98.40
64062;DHT22;50308;47.438;-1.528;2023-12-28T03:36:41;13.50;98.40
64062;DHT22;50308;47.438;-1.528;2023-12-28T03:39:07;13.50;98.30
64062;DHT22;50308;47.438;-1.528;2023-12-28T03:41:33;13.50;98.30
64062;DHT22;50308;47.438;-1.528;2023-12-28T03:43:59;13.50;98.30
64062;DHT22;50308;47.438;-1.528;2023-12-28T03:46:24;13.50;98.30
64062;DHT22;50308;47.438;-1.528;2023-12-28T03:48:52;13.50;98.40
64062;DHT22;50308;47.438;-1.528;2023-12-28T03:51:18;13.50;98.40
64062;DHT22;50308;47.438;-1.528;2023-12-28T03:53:43;13.60;98.30
64062;DHT22;50308;47.438;-1.528;2023-12-28T03:56:18;13.60;98.40
64062;DHT22;50308;47.438;-1.528;2023-12-28T03:58:44;13.50;99.00
64062;DHT22;50308;47.438;-1.528;2023-12-28T04:01:10;13.50;99.00
64062;DHT22;50308;47.438;-1.528;2023-12-28T04:03:35;13.50;99.60
64062;DHT22;50308;47.438;-1.528;2023-12-28T04:06:01;13.50;99.10
64062;DHT22;50308;47.438;-1.528;2023-12-28T04:08:27;13.50;99.20
64062;DHT22;50308;47.438;-1.528;2023-12-28T04:10:53;13.40;99.20
64062;DHT22;50308;47.438;-1.528;2023-12-28T04:13:18;13.50;99.30
64062;DHT22;50308;47.438;-1.528;2023-12-28T04:15:44;13.40;99.10
64062;DHT22;50308;47.438;-1.528;2023-12-28T04:18:09;13.50;99.00
64062;DHT22;50308;47.438;-1.528;2023-12-28T04:20:35;13.50;99.00
64062;DHT22;50308;47.438;-1.528;2023-12-28T04:23:01;13.50;99.10
64062;DHT22;50308;47.438;-1.528;2023-12-28T04:25:26;13.50;99.10
64062;DHT22;50308;47.438;-1.528;2023-12-28T04:27:52;13.50;99.00
64062;DHT22;50308;47.438;-1.528;2023-12-28T04:30:18;13.50;99.10
64062;DHT22;50308;47.438;-1.528;2023-12-28T04:32:43;13.50;99.10
64062;DHT22;50308;47.438;-1.528;2023-12-28T04:35:09;13.50;99.10
64062;DHT22;50308;47.438;-1.528;2023-12-28T04:37:35;13.50;99.00
64062;DHT22;50308;47.438;-1.528;2023-12-28T04:40:01;13.50;99.10
64062;DHT22;50308;47.438;-1.528;2023-12-28T04:42:29;13.50;99.00
64062;DHT22;50308;47.438;-1.528;2023-12-28T04:44:54;13.50;99.00
64062;DHT22;50308;47.438;-1.528;2023-12-28T04:47:20;13.40;99.00
64062;DHT22;50308;47.438;-1.528;2023-12-28T04:49:45;13.40;99.00
64062;DHT22;50308;47.438;-1.528;2023-12-28T04:52:11;13.40;99.00
64062;DHT22;50308;47.438;-1.528;2023-12-28T04:54:40;13.40;99.00
64062;DHT22;50308;47.438;-1.528;2023-12-28T04:57:06;13.40;98.90
64062;DHT22;50308;47.438;-1.528;2023-12-28T04:59:38;13.30;98.90
64062;DHT22;50308;47.438;-1.528;2023-12-28T05:02:04;13.40;98.90
64062;DHT22;50308;47.438;-1.528;2023-12-28T05:04:30;13.30;98.90
64062;DHT22;50308;47.438;-1.528;2023-12-28T05:06:56;13.30;98.90
64062;DHT22;50308;47.438;-1.528;2023-12-28T05:09:21;13.30;98.90
64062;DHT22;50308;47.438;-1.528;2023-12-28T05:11:47;13.30;98.90
64062;DHT22;50308;47.438;-1.528;2023-12-28T05:14:12;13.30;98.90
64062;DHT22;50308;47.438;-1.528;2023-12-28T05:16:38;13.20;98.90
64062;DHT22;50308;47.438;-1.528;2023-12-28T05:19:04;13.20;98.90
64062;DHT22;50308;47.438;-1.528;2023-12-28T05:21:29;13.20;98.90
64062;DHT22;50308;47.438;-1.528;2023-12-28T05:23:55;13.20;98.90
64062;DHT22;50308;47.438;-1.528;2023-12-28T05:26:20;13.20;98.80
64062;DHT22;50308;47.438;-1.528;2023-12-28T05:28:46;13.10;98.70
64062;DHT22;50308;47.438;-1.528;2023-12-28T05:31:12;13.10;98.70
64062;DHT22;50308;47.438;-1.528;2023-12-28T05:33:38;13.00;98.60
64062;DHT22;50308;47.438;-1.528;2023-12-28T05:36:05;13.00;98.60
64062;DHT22;50308;47.438;-1.528;2023-12-28T05:38:31;13.00;98.50
64062;DHT22;50308;47.438;-1.528;2023-12-28T05:40:56;13.00;98.50
64062;DHT22;50308;47.438;-1.528;2023-12-28T05:43:22;12.90;98.50
64062;DHT22;50308;47.438;-1.528;2023-12-28T05:45:47;12.90;98.50
64062;DHT22;50308;47.438;-1.528;2023-12-28T05:48:13;12.80;98.40
64062;DHT22;50308;47.438;-1.528;2023-12-28T05:50:39;12.80;98.40
64062;DHT22;50308;47.438;-1.528;2023-12-28T05:53:05;12.80;98.30
64062;DHT22;50308;47.438;-1.528;2023-12-28T05:55:31;12.80;98.40
64062;DHT22;50308;47.438;-1.528;2023-12-28T05:57:56;12.70;98.30
64062;DHT22;50308;47.438;-1.528;2023-12-28T06:00:22;12.80;98.40
64062;DHT22;50308;47.438;-1.528;2023-12-28T06:02:48;12.80;98.50
64062;DHT22;50308;47.438;-1.528;2023-12-28T06:05:17;12.80;98.40
64062;DHT22;50308;47.438;-1.528;2023-12-28T06:07:43;12.70;98.30
64062;DHT22;50308;47.438;-1.528;2023-12-28T06:10:09;12.70;98.40
64062;DHT22;50308;47.438;-1.528;2023-12-28T06:12:35;12.70;98.50
64062;DHT22;50308;47.438;-1.528;2023-12-28T06:15:01;12.70;98.40
64062;DHT22;50308;47.438;-1.528;2023-12-28T06:17:28;12.70;98.50
64062;DHT22;50308;47.438;-1.528;2023-12-28T06:19:54;12.70;98.40
64062;DHT22;50308;47.438;-1.528;2023-12-28T06:22:19;12.70;98.40
64062;DHT22;50308;47.438;-1.528;2023-12-28T06:24:45;12.70;98.30
64062;DHT22;50308;47.438;-1.528;2023-12-28T06:27:11;12.60;98.40
64062;DHT22;50308;47.438;-1.528;2023-12-28T06:29:36;12.60;98.30
64062;DHT22;50308;47.438;-1.528;2023-12-28T06:32:02;12.60;98.30
64062;DHT22;50308;47.438;-1.528;2023-12-28T06:34:28;12.60;98.30
64062;DHT22;50308;47.438;-1.528;2023-12-28T06:36:54;12.60;98.30
64062;DHT22;50308;47.438;-1.528;2023-12-28T06:39:19;12.60;98.30
64062;DHT22;50308;47.438;-1.528;2023-12-28T06:41:48;12.60;98.40
64062;DHT22;50308;47.438;-1.528;2023-12-28T06:44:14;12.60;98.30
64062;DHT22;50308;47.438;-1.528;2023-12-28T06:46:40;12.50;98.30
64062;DHT22;50308;47.438;-1.528;2023-12-28T06:49:06;12.50;98.30
64062;DHT22;50308;47.438;-1.528;2023-12-28T06:51:32;12.50;98.30
64062;DHT22;50308;47.438;-1.528;2023-12-28T06:53:58;12.50;98.30
64062;DHT22;50308;47.438;-1.528;2023-12-28T06:56:25;12.40;98.10
64062;DHT22;50308;47.438;-1.528;2023-12-28T06:58:51;12.40;98.10
64062;DHT22;50308;47.438;-1.528;2023-12-28T07:01:17;12.30;98.00
64062;DHT22;50308;47.438;-1.528;2023-12-28T07:03:43;12.30;98.10
64062;DHT22;50308;47.438;-1.528;2023-12-28T07:06:08;12.30;98.10
64062;DHT22;50308;47.438;-1.528;2023-12-28T07:08:34;12.30;98.10
64062;DHT22;50308;47.438;-1.528;2023-12-28T07:11:01;12.20;98.00
64062;DHT22;50308;47.438;-1.528;2023-12-28T07:13:27;12.20;98.10
64062;DHT22;50308;47.438;-1.528;2023-12-28T07:15:53;12.20;98.00
64062;DHT22;50308;47.438;-1.528;2023-12-28T07:18:19;12.20;98.10
64062;DHT22;50308;47.438;-1.528;2023-12-28T07:20:44;12.20;98.10
64062;DHT22;50308;47.438;-1.528;2023-12-28T07:23:10;12.10;98.10
64062;DHT22;50308;47.438;-1.528;2023-12-28T07:25:36;12.10;98.10
64062;DHT22;50308;47.438;-1.528;2023-12-28T07:28:01;12.10;98.10
64062;DHT22;50308;47.438;-1.528;2023-12-28T07:30:28;12.10;98.10
64062;DHT22;50308;47.438;-1.528;2023-12-28T07:32:53;12.10;98.10
64062;DHT22;50308;47.438;-1.528;2023-12-28T07:35:19;12.10;98.00
64062;DHT22;50308;47.438;-1.528;2023-12-28T07:37:44;12.10;98.00
64062;DHT22;50308;47.438;-1.528;2023-12-28T07:40:12;12.00;98.50
64062;DHT22;50308;47.438;-1.528;2023-12-28T07:42:38;12.10;98.00
64062;DHT22;50308;47.438;-1.528;2023-12-28T07:45:04;12.10;98.10
64062;DHT22;50308;47.438;-1.528;2023-12-28T07:47:30;12.10;98.10
64062;DHT22;50308;47.438;-1.528;2023-12-28T07:49:56;12.10;98.10
64062;DHT22;50308;47.438;-1.528;2023-12-28T07:52:22;12.10;98.20
64062;DHT22;50308;47.438;-1.528;2023-12-28T07:54:47;12.20;98.30
64062;DHT22;50308;47.438;-1.528;2023-12-28T07:57:13;12.20;98.40
64062;DHT22;50308;47.438;-1.528;2023-12-28T07:59:39;12.20;98.40
64062;DHT22;50308;47.438;-1.528;2023-12-28T08:02:05;12.30;98.50
64062;DHT22;50308;47.438;-1.528;2023-12-28T08:04:30;12.30;98.80
64062;DHT22;50308;47.438;-1.528;2023-12-28T08:06:57;12.30;98.20
64062;DHT22;50308;47.438;-1.528;2023-12-28T08:09:23;12.30;98.10
64062;DHT22;50308;47.438;-1.528;2023-12-28T08:11:49;12.30;98.20
64062;DHT22;50308;47.438;-1.528;2023-12-28T08:14:14;12.30;98.10
64062;DHT22;50308;47.438;-1.528;2023-12-28T08:16:40;12.30;98.10
64062;DHT22;50308;47.438;-1.528;2023-12-28T08:19:06;12.20;98.00
64062;DHT22;50308;47.438;-1.528;2023-12-28T08:21:31;12.20;98.10
64062;DHT22;50308;47.438;-1.528;2023-12-28T08:23:57;12.20;98.20
64062;DHT22;50308;47.438;-1.528;2023-12-28T08:26:23;12.20;98.00
64062;DHT22;50308;47.438;-1.528;2023-12-28T08:28:48;12.20;98.30
64062;DHT22;50308;47.438;-1.528;2023-12-28T08:31:14;12.20;98.20
64062;DHT22;50308;47.438;-1.528;2023-12-28T08:33:40;12.20;98.10
64062;DHT22;50308;47.438;-1.528;2023-12-28T08:36:09;12.20;98.10
64062;DHT22;50308;47.438;-1.528;2023-12-28T08:38:35;12.20;98.00
64062;DHT22;50308;47.438;-1.528;2023-12-28T08:41:00;12.20;97.90
64062;DHT22;50308;47.438;-1.528;2023-12-28T08:43:29;12.10;97.90
64062;DHT22;50308;47.438;-1.528;2023-12-28T08:45:54;12.10;97.90
64062;DHT22;50308;47.438;-1.528;2023-12-28T08:48:20;12.10;98.00
64062;DHT22;50308;47.438;-1.528;2023-12-28T08:50:47;12.10;98.00
64062;DHT22;50308;47.438;-1.528;2023-12-28T08:53:13;12.10;97.90
64062;DHT22;50308;47.438;-1.528;2023-12-28T08:55:39;12.00;97.80
64062;DHT22;50308;47.438;-1.528;2023-12-28T08:58:04;12.00;97.90
64062;DHT22;50308;47.438;-1.528;2023-12-28T09:00:30;12.00;97.90
64062;DHT22;50308;47.438;-1.528;2023-12-28T09:02:55;12.00;98.10
64062;DHT22;50308;47.438;-1.528;2023-12-28T09:05:21;12.10;98.60
64062;DHT22;50308;47.438;-1.528;2023-12-28T09:07:47;12.10;98.10
64062;DHT22;50308;47.438;-1.528;2023-12-28T09:10:12;12.10;98.20
64062;DHT22;50308;47.438;-1.528;2023-12-28T09:12:40;12.10;98.30
64062;DHT22;50308;47.438;-1.528;2023-12-28T09:15:06;12.20;98.50
64062;DHT22;50308;47.438;-1.528;2023-12-28T09:17:33;12.30;98.50
64062;DHT22;50308;47.438;-1.528;2023-12-28T09:19:58;12.30;98.60
64062;DHT22;50308;47.438;-1.528;2023-12-28T09:22:24;12.40;98.60
64062;DHT22;50308;47.438;-1.528;2023-12-28T09:24:50;12.40;98.60
64062;DHT22;50308;47.438;-1.528;2023-12-28T09:27:16;12.40;98.70
64062;DHT22;50308;47.438;-1.528;2023-12-28T09:29:42;12.50;98.70
64062;DHT22;50308;47.438;-1.528;2023-12-28T09:32:07;12.50;98.70
64062;DHT22;50308;47.438;-1.528;2023-12-28T09:34:33;12.60;98.70
64062;DHT22;50308;47.438;-1.528;2023-12-28T09:36:59;12.60;98.70
64062;DHT22;50308;47.438;-1.528;2023-12-28T09:39:25;12.70;98.80
64062;DHT22;50308;47.438;-1.528;2023-12-28T09:41:58;12.70;98.80
64062;DHT22;50308;47.438;-1.528;2023-12-28T09:44:26;12.70;98.70
64062;DHT22;50308;47.438;-1.528;2023-12-28T09:46:53;12.70;98.80
64062;DHT22;50308;47.438;-1.528;2023-12-28T09:49:21;12.80;98.80
64062;DHT22;50308;47.438;-1.528;2023-12-28T09:51:48;12.80;98.90
64062;DHT22;50308;47.438;-1.528;2023-12-28T09:54:14;12.80;98.90
64062;DHT22;50308;47.438;-1.528;2023-12-28T09:56:40;12.80;98.90
64062;DHT22;50308;47.438;-1.528;2023-12-28T09:59:07;12.90;99.00
64062;DHT22;50308;47.438;-1.528;2023-12-28T10:01:34;12.90;99.00
64062;DHT22;50308;47.438;-1.528;2023-12-28T10:04:00;12.90;98.90
64062;DHT22;50308;47.438;-1.528;2023-12-28T10:06:28;13.00;98.90
64062;DHT22;50308;47.438;-1.528;2023-12-28T10:08:54;13.00;99.00
64062;DHT22;50308;47.438;-1.528;2023-12-28T10:11:21;13.00;99.00
64062;DHT22;50308;47.438;-1.528;2023-12-28T10:13:49;13.10;98.90
64062;DHT22;50308;47.438;-1.528;2023-12-28T10:16:15;13.10;99.00
64062;DHT22;50308;47.438;-1.528;2023-12-28T10:18:45;13.10;99.00
64062;DHT22;50308;47.438;-1.528;2023-12-28T10:21:11;13.10;98.90
64062;DHT22;50308;47.438;-1.528;2023-12-28T10:23:38;13.10;99.50
64062;DHT22;50308;47.438;-1.528;2023-12-28T10:26:04;13.20;99.00
64062;DHT22;50308;47.438;-1.528;2023-12-28T10:28:37;13.20;99.10
64062;DHT22;50308;47.438;-1.528;2023-12-28T10:31:05;13.20;99.20
64062;DHT22;50308;47.438;-1.528;2023-12-28T10:33:34;13.20;99.10
64062;DHT22;50308;47.438;-1.528;2023-12-28T10:36:05;13.20;99.10
64062;DHT22;50308;47.438;-1.528;2023-12-28T10:38:34;13.20;99.10
64062;DHT22;50308;47.438;-1.528;2023-12-28T10:41:06;13.20;99.00
64062;DHT22;50308;47.438;-1.528;2023-12-28T10:43:46;13.30;99.10
64062;DHT22;50308;47.438;-1.528;2023-12-28T10:46:25;13.30;99.10
64062;DHT22;50308;47.438;-1.528;2023-12-28T10:49:00;13.30;99.00
64062;DHT22;50308;47.438;-1.528;2023-12-28T10:51:26;13.30;99.30
64062;DHT22;50308;47.438;-1.528;2023-12-28T10:56:44;13.30;99.20
64062;DHT22;50308;47.438;-1.528;2023-12-28T10:59:21;13.30;99.20
64062;DHT22;50308;47.438;-1.528;2023-12-28T11:01:51;13.30;99.30
64062;DHT22;50308;47.438;-1.528;2023-12-28T11:04:48;13.30;99.20
64062;DHT22;50308;47.438;-1.528;2023-12-28T11:07:17;13.40;99.20
64062;DHT22;50308;47.438;-1.528;2023-12-28T11:09:43;13.40;99.30
64062;DHT22;50308;47.438;-1.528;2023-12-28T11:12:10;13.30;99.20
64062;DHT22;50308;47.438;-1.528;2023-12-28T11:14:39;13.30;99.30
64062;DHT22;50308;47.438;-1.528;2023-12-28T11:17:05;13.40;99.30
64062;DHT22;50308;47.438;-1.528;2023-12-28T11:19:31;13.40;99.30
64062;DHT22;50308;47.438;-1.528;2023-12-28T11:21:58;13.40;99.30
64062;DHT22;50308;47.438;-1.528;2023-12-28T11:24:27;13.40;99.30
64062;DHT22;50308;47.438;-1.528;2023-12-28T11:26:54;13.40;99.30
64062;DHT22;50308;47.438;-1.528;2023-12-28T11:29:23;13.40;99.30
64062;DHT22;50308;47.438;-1.528;2023-12-28T11:31:53;13.40;99.30
64062;DHT22;50308;47.438;-1.528;2023-12-28T11:34:24;13.40;99.20
64062;DHT22;50308;47.438;-1.528;2023-12-28T11:36:52;13.50;99.30
64062;DHT22;50308;47.438;-1.528;2023-12-28T11:42:06;13.50;99.40
64062;DHT22;50308;47.438;-1.528;2023-12-28T11:44:41;13.50;99.40
64062;DHT22;50308;47.438;-1.528;2023-12-28T11:49:38;13.50;99.40
64062;DHT22;50308;47.438;-1.528;2023-12-28T11:52:06;13.50;99.50
64062;DHT22;50308;47.438;-1.528;2023-12-28T11:54:32;13.50;99.40
64062;DHT22;50308;47.438;-1.528;2023-12-28T11:56:58;13.50;99.40
64062;DHT22;50308;47.438;-1.528;2023-12-28T11:59:23;13.50;99.50
64062;DHT22;50308;47.438;-1.528;2023-12-28T12:01:53;13.50;99.50
64062;DHT22;50308;47.438;-1.528;2023-12-28T12:04:20;13.50;99.50
64062;DHT22;50308;47.438;-1.528;2023-12-28T12:06:46;13.50;99.50
64062;DHT22;50308;47.438;-1.528;2023-12-28T12:09:15;13.50;99.20
64062;DHT22;50308;47.438;-1.528;2023-12-28T12:11:41;13.50;99.30
64062;DHT22;50308;47.438;-1.528;2023-12-28T12:14:10;13.60;99.40
64062;DHT22;50308;47.438;-1.528;2023-12-28T12:16:37;13.60;99.40
64062;DHT22;50308;47.438;-1.528;2023-12-28T12:19:04;13.60;99.30
64062;DHT22;50308;47.438;-1.528;2023-12-28T12:21:30;13.60;99.40
64062;DHT22;50308;47.438;-1.528;2023-12-28T12:23:56;13.60;99.40
64062;DHT22;50308;47.438;-1.528;2023-12-28T12:26:21;13.60;99.20
64062;DHT22;50308;47.438;-1.528;2023-12-28T12:28:47;13.60;99.30
64062;DHT22;50308;47.438;-1.528;2023-12-28T12:31:14;13.60;99.30
64062;DHT22;50308;47.438;-1.528;2023-12-28T12:33:40;13.60;99.20
64062;DHT22;50308;47.438;-1.528;2023-12-28T12:36:07;13.60;99.20
64062;DHT22;50308;47.438;-1.528;2023-12-28T12:38:34;13.60;99.10
64062;DHT22;50308;47.438;-1.528;2023-12-28T12:40:59;13.60;99.20
64062;DHT22;50308;47.438;-1.528;2023-12-28T12:43:25;13.60;99.10
64062;DHT22;50308;47.438;-1.528;2023-12-28T12:45:52;13.60;99.10
64062;DHT22;50308;47.438;-1.528;2023-12-28T12:48:18;13.60;99.10
64062;DHT22;50308;47.438;-1.528;2023-12-28T12:50:44;13.60;99.00
64062;DHT22;50308;47.438;-1.528;2023-12-28T12:53:10;13.60;99.00
64062;DHT22;50308;47.438;-1.528;2023-12-28T12:55:38;13.60;99.00
64062;DHT22;50308;47.438;-1.528;2023-12-28T12:58:12;13.60;98.90
64062;DHT22;50308;47.438;-1.528;2023-12-28T13:00:39;13.60;98.90
64062;DHT22;50308;47.438;-1.528;2023-12-28T13:03:08;13.60;98.70
64062;DHT22;50308;47.438;-1.528;2023-12-28T13:05:37;13.60;98.50
64062;DHT22;50308;47.438;-1.528;2023-12-28T13:08:04;13.60;98.40
64062;DHT22;50308;47.438;-1.528;2023-12-28T13:10:30;13.60;98.20
64062;DHT22;50308;47.438;-1.528;2023-12-28T13:12:56;13.50;97.90
64062;DHT22;50308;47.438;-1.528;2023-12-28T13:15:22;13.50;97.90
64062;DHT22;50308;47.438;-1.528;2023-12-28T13:17:47;13.50;97.70
64062;DHT22;50308;47.438;-1.528;2023-12-28T13:20:13;13.50;97.40
64062;DHT22;50308;47.438;-1.528;2023-12-28T13:22:39;13.50;97.30
64062;DHT22;50308;47.438;-1.528;2023-12-28T13:25:05;13.50;97.30
64062;DHT22;50308;47.438;-1.528;2023-12-28T13:27:31;13.50;97.20
64062;DHT22;50308;47.438;-1.528;2023-12-28T13:29:57;13.50;97.20
64062;DHT22;50308;47.438;-1.528;2023-12-28T13:32:23;13.50;97.30
64062;DHT22;50308;47.438;-1.528;2023-12-28T13:34:49;13.50;97.20
64062;DHT22;50308;47.438;-1.528;2023-12-28T13:37:18;13.50;97.20
64062;DHT22;50308;47.438;-1.528;2023-12-28T13:39:44;13.50;97.20
64062;DHT22;50308;47.438;-1.528;2023-12-28T13:42:09;13.50;97.10
64062;DHT22;50308;47.438;-1.528;2023-12-28T13:44:35;13.50;97.00
64062;DHT22;50308;47.438;-1.528;2023-12-28T13:47:04;13.50;97.00
64062;DHT22;50308;47.438;-1.528;2023-12-28T13:49:33;13.50;97.10
64062;DHT22;50308;47.438;-1.528;2023-12-28T13:51:59;13.50;96.90
64062;DHT22;50308;47.438;-1.528;2023-12-28T13:54:24;13.50;97.00
64062;DHT22;50308;47.438;-1.528;2023-12-28T13:56:50;13.50;97.00
64062;DHT22;50308;47.438;-1.528;2023-12-28T13:59:22;13.50;96.90
64062;DHT22;50308;47.438;-1.528;2023-12-28T14:01:47;13.50;96.90
64062;DHT22;50308;47.438;-1.528;2023-12-28T14:04:13;13.50;96.90
64062;DHT22;50308;47.438;-1.528;2023-12-28T14:06:39;13.50;96.90
64062;DHT22;50308;47.438;-1.528;2023-12-28T14:09:05;13.50;96.90
64062;DHT22;50308;47.438;-1.528;2023-12-28T14:11:31;13.50;96.90
64062;DHT22;50308;47.438;-1.528;2023-12-28T14:13:56;13.50;97.00
64062;DHT22;50308;47.438;-1.528;2023-12-28T14:16:22;13.50;97.00
64062;DHT22;50308;47.438;-1.528;2023-12-28T14:18:48;13.50;97.10
64062;DHT22;50308;47.438;-1.528;2023-12-28T14:21:14;13.50;97.20
64062;DHT22;50308;47.438;-1.528;2023-12-28T14:23:41;13.60;97.10
64062;DHT22;50308;47.438;-1.528;2023-12-28T14:26:12;13.60;97.10
64062;DHT22;50308;47.438;-1.528;2023-12-28T14:28:44;13.60;97.00
64062;DHT22;50308;47.438;-1.528;2023-12-28T14:31:11;13.60;97.00
64062;DHT22;50308;47.438;-1.528;2023-12-28T14:33:37;13.50;96.80
64062;DHT22;50308;47.438;-1.528;2023-12-28T14:36:29;13.50;96.80
64062;DHT22;50308;47.438;-1.528;2023-12-28T14:39:00;13.50;96.90
64062;DHT22;50308;47.438;-1.528;2023-12-28T14:41:26;13.50;96.80
64062;DHT22;50308;47.438;-1.528;2023-12-28T14:43:55;13.50;96.80
64062;DHT22;50308;47.438;-1.528;2023-12-28T14:46:20;13.50;96.80
64062;DHT22;50308;47.438;-1.528;2023-12-28T14:48:46;13.50;96.80
64062;DHT22;50308;47.438;-1.528;2023-12-28T14:51:12;13.60;96.80
64062;DHT22;50308;47.438;-1.528;2023-12-28T14:53:38;13.60;96.90
64062;DHT22;50308;47.438;-1.528;2023-12-28T14:56:04;13.50;96.90
64062;DHT22;50308;47.438;-1.528;2023-12-28T14:58:29;13.50;96.80
64062;DHT22;50308;47.438;-1.528;2023-12-28T15:00:55;13.60;96.80
64062;DHT22;50308;47.438;-1.528;2023-12-28T15:03:22;13.60;96.90
64062;DHT22;50308;47.438;-1.528;2023-12-28T15:05:48;13.60;96.90
64062;DHT22;50308;47.438;-1.528;2023-12-28T15:08:13;13.60;96.90
64062;DHT22;50308;47.438;-1.528;2023-12-28T15:10:39;13.60;96.90
64062;DHT22;50308;47.438;-1.528;2023-12-28T15:13:05;13.60;96.80
64062;DHT22;50308;47.438;-1.528;2023-12-28T15:15:32;13.60;96.80
64062;DHT22;50308;47.438;-1.528;2023-12-28T15:17:58;13.60;96.80
64062;DHT22;50308;47.438;-1.528;2023-12-28T15:20:24;13.60;96.80
64062;DHT22;50308;47.438;-1.528;2023-12-28T15:22:50;13.60;96.80